sensor_id;sensor_type;location;lat;lon;timestamp;P1;durP1;ratioP1;P2;durP2;ratioP2
14300;SDS011;7234;59.306;18.024;2024-01-15T00:00:29;0.67;;;0.40;;
14300;SDS011;7234;59.306;18.024;2024-01-15T00:02:57;2.27;;;0.47;;
14300;SDS011;7234;59.306;18.024;2024-01-15T00:05:24;4.33;;;0.60;;
14300;SDS011;7234;59.306;18.024;2024-01-15T00:07:51;0.80;;;0.40;;
14300;SDS011;7234;59.306;18.024;2024-01-15T00:10:18;0.53;;;0.33;;
14300;SDS011;7234;59.306;18.024;2024-01-15T00:12:44;0.50;;;0.40;;
14300;SDS011;7234;59.306;18.024;2024-01-15T00:15:11;0.60;;;0.30;;
14300;SDS011;7234;59.306;18.024;2024-01-15T00:17:40;0.27;;;0.27;;
14300;SDS011;7234;59.306;18.024;2024-01-15T00:20:07;1.03;;;0.20;;
14300;SDS011;7234;59.306;18.024;2024-01-15T00:22:34;0.90;;;0.60;;
14300;SDS011;7234;59.306;18.024;2024-01-15T00:25:02;1.30;;;0.40;;
14300;SDS011;7234;59.306;18.024;2024-01-15T00:27:29;1.53;;;0.60;;
14300;SDS011;7234;59.306;18.024;2024-01-15T00:29:56;0.47;;;0.33;;
14300;SDS011;7234;59.306;18.024;2024-01-15T00:32:23;1.40;;;0.27;;
14300;SDS011;7234;59.306;18.024;2024-01-15T00:34:51;1.33;;;0.47;;
14300;SDS011;7234;59.306;18.024;2024-01-15T00:37:18;0.50;;;0.30;;
14300;SDS011;7234;59.306;18.024;2024-01-15T00:39:45;1.00;;;0.50;;
14300;SDS011;7234;59.306;18.024;2024-01-15T00:42:12;1.10;;;0.60;;
14300;SDS011;7234;59.306;18.024;2024-01-15T00:44:39;1.60;;;0.50;;
14300;SDS011;7234;59.306;18.024;2024-01-15T00:47:06;0.73;;;0.37;;
14300;SDS011;7234;59.306;18.024;2024-01-15T00:49:32;2.10;;;0.40;;
14300;SDS011;7234;59.306;18.024;2024-01-15T00:52:01;1.03;;;0.40;;
14300;SDS011;7234;59.306;18.024;2024-01-15T00:54:28;1.03;;;0.50;;
14300;SDS011;7234;59.306;18.024;2024-01-15T00:56:55;0.87;;;0.30;;
14300;SDS011;7234;59.306;18.024;2024-01-15T00:59:22;0.63;;;0.33;;
14300;SDS011;7234;59.306;18.024;2024-01-15T01:01:49;0.50;;;0.40;;
14300;SDS011;7234;59.306;18.024;2024-01-15T01:04:16;0.40;;;0.30;;
14300;SDS011;7234;59.306;18.024;2024-01-15T01:06:43;1.03;;;0.40;;
14300;SDS011;7234;59.306;18.024;2024-01-15T01:09:11;0.30;;;0.30;;
14300;SDS011;7234;59.306;18.024;2024-01-15T01:11:38;0.33;;;0.33;;
14300;SDS011;7234;59.306;18.024;2024-01-15T01:14:05;1.03;;;0.23;;
14300;SDS011;7234;59.306;18.024;2024-01-15T01:16:32;0.77;;;0.30;;
14300;SDS011;7234;59.306;18.024;2024-01-15T01:19:03;0.40;;;0.40;;
14300;SDS011;7234;59.306;18.024;2024-01-15T01:21:31;1.27;;;0.40;;
14300;SDS011;7234;59.306;18.024;2024-01-15T01:23:58;1.73;;;0.30;;
14300;SDS011;7234;59.306;18.024;2024-01-15T01:26:26;0.30;;;0.30;;
14300;SDS011;7234;59.306;18.024;2024-01-15T01:28:53;1.73;;;0.67;;
14300;SDS011;7234;59.306;18.024;2024-01-15T01:31:20;0.67;;;0.40;;
14300;SDS011;7234;59.306;18.024;2024-01-15T01:33:46;1.90;;;0.80;;
14300;SDS011;7234;59.306;18.024;2024-01-15T01:36:13;0.53;;;0.30;;
14300;SDS011;7234;59.306;18.024;2024-01-15T01:38:40;1.00;;;0.40;;
14300;SDS011;7234;59.306;18.024;2024-01-15T01:41:07;2.50;;;0.60;;
14300;SDS011;7234;59.306;18.024;2024-01-15T01:43:36;1.50;;;0.57;;
14300;SDS011;7234;59.306;18.024;2024-01-15T01:46:03;1.40;;;0.43;;
14300;SDS011;7234;59.306;18.024;2024-01-15T01:48:31;0.77;;;0.50;;
14300;SDS011;7234;59.306;18.024;2024-01-15T01:50:59;0.87;;;0.47;;
14300;SDS011;7234;59.306;18.024;2024-01-15T01:53:28;0.97;;;0.33;;
14300;SDS011;7234;59.306;18.024;2024-01-15T01:55:58;1.23;;;0.50;;
14300;SDS011;7234;59.306;18.024;2024-01-15T01:58:26;0.77;;;0.40;;
14300;SDS011;7234;59.306;18.024;2024-01-15T02:00:55;0.90;;;0.40;;
14300;SDS011;7234;59.306;18.024;2024-01-15T02:03:24;0.30;;;0.30;;
14300;SDS011;7234;59.306;18.024;2024-01-15T02:05:51;0.80;;;0.50;;
14300;SDS011;7234;59.306;18.024;2024-01-15T02:08:18;0.47;;;0.40;;
14300;SDS011;7234;59.306;18.024;2024-01-15T02:10:45;0.43;;;0.43;;
14300;SDS011;7234;59.306;18.024;2024-01-15T02:13:12;1.70;;;0.53;;
14300;SDS011;7234;59.306;18.024;2024-01-15T02:15:39;0.60;;;0.40;;
14300;SDS011;7234;59.306;18.024;2024-01-15T02:18:08;2.40;;;0.50;;
14300;SDS011;7234;59.306;18.024;2024-01-15T02:20:35;1.73;;;0.30;;
14300;SDS011;7234;59.306;18.024;2024-01-15T02:23:09;0.97;;;0.43;;
14300;SDS011;7234;59.306;18.024;2024-01-15T02:25:37;0.73;;;0.30;;
14300;SDS011;7234;59.306;18.024;2024-01-15T02:28:06;0.60;;;0.40;;
14300;SDS011;7234;59.306;18.024;2024-01-15T02:30:34;2.33;;;0.23;;
14300;SDS011;7234;59.306;18.024;2024-01-15T02:33:04;0.60;;;0.50;;
14300;SDS011;7234;59.306;18.024;2024-01-15T02:35:31;2.90;;;0.30;;
14300;SDS011;7234;59.306;18.024;2024-01-15T02:37:58;1.50;;;0.63;;
14300;SDS011;7234;59.306;18.024;2024-01-15T02:40:27;0.77;;;0.50;;
14300;SDS011;7234;59.306;18.024;2024-01-15T02:42:54;3.53;;;0.40;;
14300;SDS011;7234;59.306;18.024;2024-01-15T02:45:21;1.90;;;0.50;;
14300;SDS011;7234;59.306;18.024;2024-01-15T02:47:49;0.70;;;0.40;;
14300;SDS011;7234;59.306;18.024;2024-01-15T02:50:17;0.50;;;0.50;;
14300;SDS011;7234;59.306;18.024;2024-01-15T02:52:44;2.00;;;0.53;;
14300;SDS011;7234;59.306;18.024;2024-01-15T02:55:11;0.47;;;0.30;;
14300;SDS011;7234;59.306;18.024;2024-01-15T02:57:39;1.43;;;0.50;;
14300;SDS011;7234;59.306;18.024;2024-01-15T03:00:07;1.97;;;0.50;;
14300;SDS011;7234;59.306;18.024;2024-01-15T03:02:36;1.37;;;0.40;;
14300;SDS011;7234;59.306;18.024;2024-01-15T03:05:05;0.83;;;0.37;;
14300;SDS011;7234;59.306;18.024;2024-01-15T03:07:32;0.80;;;0.30;;
14300;SDS011;7234;59.306;18.024;2024-01-15T03:10:00;0.97;;;0.30;;
14300;SDS011;7234;59.306;18.024;2024-01-15T03:12:27;0.40;;;0.30;;
14300;SDS011;7234;59.306;18.024;2024-01-15T03:14:55;1.53;;;0.40;;
14300;SDS011;7234;59.306;18.024;2024-01-15T03:17:22;0.83;;;0.20;;
14300;SDS011;7234;59.306;18.024;2024-01-15T03:19:49;0.70;;;0.50;;
14300;SDS011;7234;59.306;18.024;2024-01-15T03:22:16;0.33;;;0.27;;
14300;SDS011;7234;59.306;18.024;2024-01-15T03:24:44;2.00;;;0.40;;
14300;SDS011;7234;59.306;18.024;2024-01-15T03:27:11;1.10;;;0.40;;
14300;SDS011;7234;59.306;18.024;2024-01-15T03:29:39;0.83;;;0.53;;
14300;SDS011;7234;59.306;18.024;2024-01-15T03:32:07;1.60;;;0.40;;
14300;SDS011;7234;59.306;18.024;2024-01-15T03:34:34;0.60;;;0.57;;
14300;SDS011;7234;59.306;18.024;2024-01-15T03:37:01;0.33;;;0.30;;
14300;SDS011;7234;59.306;18.024;2024-01-15T03:39:28;0.40;;;0.40;;
14300;SDS011;7234;59.306;18.024;2024-01-15T03:41:55;2.27;;;0.50;;
14300;SDS011;7234;59.306;18.024;2024-01-15T03:44:22;2.70;;;0.40;;
14300;SDS011;7234;59.306;18.024;2024-01-15T03:46:49;1.20;;;0.70;;
14300;SDS011;7234;59.306;18.024;2024-01-15T03:49:18;1.03;;;0.43;;
14300;SDS011;7234;59.306;18.024;2024-01-15T03:51:45;0.30;;;0.30;;
14300;SDS011;7234;59.306;18.024;2024-01-15T03:54:12;2.90;;;0.50;;
14300;SDS011;7234;59.306;18.024;2024-01-15T03:56:39;0.43;;;0.37;;
14300;SDS011;7234;59.306;18.024;2024-01-15T03:59:06;1.60;;;0.50;;
14300;SDS011;7234;59.306;18.024;2024-01-15T04:01:33;0.40;;;0.40;;
14300;SDS011;7234;59.306;18.024;2024-01-15T04:04:00;1.23;;;0.50;;
14300;SDS011;7234;59.306;18.024;2024-01-15T04:06:28;1.10;;;0.50;;
14300;SDS011;7234;59.306;18.024;2024-01-15T04:08:55;0.37;;;0.37;;
14300;SDS011;7234;59.306;18.024;2024-01-15T04:11:22;0.67;;;0.67;;
14300;SDS011;7234;59.306;18.024;2024-01-15T04:13:49;1.40;;;0.70;;
14300;SDS011;7234;59.306;18.024;2024-01-15T04:16:17;1.57;;;0.37;;
14300;SDS011;7234;59.306;18.024;2024-01-15T04:18:45;2.53;;;0.60;;
14300;SDS011;7234;59.306;18.024;2024-01-15T04:21:12;2.00;;;0.60;;
14300;SDS011;7234;59.306;18.024;2024-01-15T04:23:40;1.50;;;0.33;;
14300;SDS011;7234;59.306;18.024;2024-01-15T04:26:07;0.80;;;0.60;;
14300;SDS011;7234;59.306;18.024;2024-01-15T04:28:34;0.93;;;0.63;;
14300;SDS011;7234;59.306;18.024;2024-01-15T04:31:01;0.80;;;0.70;;
14300;SDS011;7234;59.306;18.024;2024-01-15T04:33:28;0.53;;;0.40;;
14300;SDS011;7234;59.306;18.024;2024-01-15T04:35:55;0.50;;;0.50;;
14300;SDS011;7234;59.306;18.024;2024-01-15T04:38:22;0.87;;;0.70;;
14300;SDS011;7234;59.306;18.024;2024-01-15T04:40:50;2.07;;;0.60;;
14300;SDS011;7234;59.306;18.024;2024-01-15T04:43:17;3.13;;;1.03;;
14300;SDS011;7234;59.306;18.024;2024-01-15T04:45:44;0.80;;;0.80;;
14300;SDS011;7234;59.306;18.024;2024-01-15T04:48:11;0.83;;;0.53;;
14300;SDS011;7234;59.306;18.024;2024-01-15T04:50:38;0.60;;;0.60;;
14300;SDS011;7234;59.306;18.024;2024-01-15T04:53:05;1.00;;;0.60;;
14300;SDS011;7234;59.306;18.024;2024-01-15T04:55:32;1.17;;;0.80;;
14300;SDS011;7234;59.306;18.024;2024-01-15T04:58:01;1.80;;;0.67;;
14300;SDS011;7234;59.306;18.024;2024-01-15T05:00:28;0.60;;;0.60;;
14300;SDS011;7234;59.306;18.024;2024-01-15T05:02:55;0.90;;;0.70;;
14300;SDS011;7234;59.306;18.024;2024-01-15T05:05:22;1.20;;;0.90;;
14300;SDS011;7234;59.306;18.024;2024-01-15T05:07:49;2.30;;;1.00;;
14300;SDS011;7234;59.306;18.024;2024-01-15T05:10:16;2.00;;;0.90;;
14300;SDS011;7234;59.306;18.024;2024-01-15T05:12:43;1.40;;;0.80;;
14300;SDS011;7234;59.306;18.024;2024-01-15T05:15:11;0.63;;;0.60;;
14300;SDS011;7234;59.306;18.024;2024-01-15T05:17:38;1.43;;;0.80;;
14300;SDS011;7234;59.306;18.024;2024-01-15T05:20:05;0.87;;;0.70;;
14300;SDS011;7234;59.306;18.024;2024-01-15T05:22:33;2.30;;;0.63;;
14300;SDS011;7234;59.306;18.024;2024-01-15T05:25:00;1.50;;;0.70;;
14300;SDS011;7234;59.306;18.024;2024-01-15T05:27:27;0.70;;;0.70;;
14300;SDS011;7234;59.306;18.024;2024-01-15T05:29:54;1.17;;;0.80;;
14300;SDS011;7234;59.306;18.024;2024-01-15T05:32:22;0.73;;;0.73;;
14300;SDS011;7234;59.306;18.024;2024-01-15T05:34:49;1.33;;;0.90;;
14300;SDS011;7234;59.306;18.024;2024-01-15T05:37:16;1.30;;;0.90;;
14300;SDS011;7234;59.306;18.024;2024-01-15T05:39:43;1.17;;;0.90;;
14300;SDS011;7234;59.306;18.024;2024-01-15T05:42:10;1.10;;;0.87;;
14300;SDS011;7234;59.306;18.024;2024-01-15T05:44:37;3.17;;;1.20;;
14300;SDS011;7234;59.306;18.024;2024-01-15T05:47:04;2.33;;;1.00;;
14300;SDS011;7234;59.306;18.024;2024-01-15T05:49:32;1.50;;;1.03;;
14300;SDS011;7234;59.306;18.024;2024-01-15T05:52:00;2.37;;;1.30;;
14300;SDS011;7234;59.306;18.024;2024-01-15T05:54:27;2.77;;;1.00;;
14300;SDS011;7234;59.306;18.024;2024-01-15T05:56:55;1.30;;;0.83;;
14300;SDS011;7234;59.306;18.024;2024-01-15T05:59:22;1.30;;;0.70;;
14300;SDS011;7234;59.306;18.024;2024-01-15T06:01:50;1.10;;;1.00;;
14300;SDS011;7234;59.306;18.024;2024-01-15T06:04:17;1.70;;;0.90;;
14300;SDS011;7234;59.306;18.024;2024-01-15T06:06:46;1.23;;;1.10;;
14300;SDS011;7234;59.306;18.024;2024-01-15T06:09:13;1.90;;;0.80;;
14300;SDS011;7234;59.306;18.024;2024-01-15T06:11:40;2.10;;;1.20;;
14300;SDS011;7234;59.306;18.024;2024-01-15T06:14:07;1.10;;;0.73;;
14300;SDS011;7234;59.306;18.024;2024-01-15T06:16:33;3.20;;;2.40;;
14300;SDS011;7234;59.306;18.024;2024-01-15T06:19:00;1.30;;;1.10;;
14300;SDS011;7234;59.306;18.024;2024-01-15T06:21:28;1.20;;;0.80;;
14300;SDS011;7234;59.306;18.024;2024-01-15T06:23:56;1.13;;;0.90;;
14300;SDS011;7234;59.306;18.024;2024-01-15T06:26:23;1.00;;;0.83;;
14300;SDS011;7234;59.306;18.024;2024-01-15T06:28:50;1.13;;;0.87;;
14300;SDS011;7234;59.306;18.024;2024-01-15T06:31:17;1.53;;;0.93;;
14300;SDS011;7234;59.306;18.024;2024-01-15T06:33:44;1.50;;;1.17;;
14300;SDS011;7234;59.306;18.024;2024-01-15T06:36:13;1.93;;;1.23;;
14300;SDS011;7234;59.306;18.024;2024-01-15T06:38:41;3.67;;;1.17;;
14300;SDS011;7234;59.306;18.024;2024-01-15T06:41:10;1.20;;;1.00;;
14300;SDS011;7234;59.306;18.024;2024-01-15T06:43:38;2.00;;;1.10;;
14300;SDS011;7234;59.306;18.024;2024-01-15T06:46:05;3.23;;;1.20;;
14300;SDS011;7234;59.306;18.024;2024-01-15T06:48:31;3.77;;;1.30;;
14300;SDS011;7234;59.306;18.024;2024-01-15T06:50:58;2.50;;;1.20;;
14300;SDS011;7234;59.306;18.024;2024-01-15T06:53:25;2.37;;;1.20;;
14300;SDS011;7234;59.306;18.024;2024-01-15T06:55:52;2.27;;;1.10;;
14300;SDS011;7234;59.306;18.024;2024-01-15T06:58:21;1.63;;;1.37;;
14300;SDS011;7234;59.306;18.024;2024-01-15T07:00:48;3.27;;;1.00;;
14300;SDS011;7234;59.306;18.024;2024-01-15T07:03:15;1.83;;;1.40;;
14300;SDS011;7234;59.306;18.024;2024-01-15T07:05:42;2.33;;;1.57;;
14300;SDS011;7234;59.306;18.024;2024-01-15T07:08:09;3.80;;;1.43;;
14300;SDS011;7234;59.306;18.024;2024-01-15T07:10:36;2.60;;;1.50;;
14300;SDS011;7234;59.306;18.024;2024-01-15T07:13:03;2.87;;;1.83;;
14300;SDS011;7234;59.306;18.024;2024-01-15T07:15:32;3.73;;;1.77;;
14300;SDS011;7234;59.306;18.024;2024-01-15T07:17:59;1.90;;;1.30;;
14300;SDS011;7234;59.306;18.024;2024-01-15T07:20:26;1.67;;;1.53;;
14300;SDS011;7234;59.306;18.024;2024-01-15T07:22:53;1.60;;;1.23;;
14300;SDS011;7234;59.306;18.024;2024-01-15T07:25:20;1.87;;;1.27;;
14300;SDS011;7234;59.306;18.024;2024-01-15T07:27:47;1.80;;;1.50;;
14300;SDS011;7234;59.306;18.024;2024-01-15T07:30:14;2.47;;;1.60;;
14300;SDS011;7234;59.306;18.024;2024-01-15T07:32:42;3.07;;;1.40;;
14300;SDS011;7234;59.306;18.024;2024-01-15T07:35:09;3.30;;;0.90;;
14300;SDS011;7234;59.306;18.024;2024-01-15T07:37:36;1.40;;;1.20;;
14300;SDS011;7234;59.306;18.024;2024-01-15T07:40:04;2.00;;;1.20;;
14300;SDS011;7234;59.306;18.024;2024-01-15T07:42:33;1.80;;;1.33;;
14300;SDS011;7234;59.306;18.024;2024-01-15T07:45:00;1.37;;;1.00;;
14300;SDS011;7234;59.306;18.024;2024-01-15T07:47:27;1.60;;;1.07;;
14300;SDS011;7234;59.306;18.024;2024-01-15T07:49:56;3.73;;;0.80;;
14300;SDS011;7234;59.306;18.024;2024-01-15T07:52:23;1.10;;;0.90;;
14300;SDS011;7234;59.306;18.024;2024-01-15T07:54:50;0.70;;;0.70;;
14300;SDS011;7234;59.306;18.024;2024-01-15T07:57:17;1.87;;;0.90;;
14300;SDS011;7234;59.306;18.024;2024-01-15T07:59:45;1.37;;;0.60;;
14300;SDS011;7234;59.306;18.024;2024-01-15T08:02:12;0.70;;;0.70;;
14300;SDS011;7234;59.306;18.024;2024-01-15T08:04:38;5.23;;;0.70;;
14300;SDS011;7234;59.306;18.024;2024-01-15T08:07:07;1.50;;;1.00;;
14300;SDS011;7234;59.306;18.024;2024-01-15T08:09:34;0.93;;;0.50;;
14300;SDS011;7234;59.306;18.024;2024-01-15T08:12:01;1.10;;;0.57;;
14300;SDS011;7234;59.306;18.024;2024-01-15T08:14:31;1.33;;;0.40;;
14300;SDS011;7234;59.306;18.024;2024-01-15T08:16:58;0.80;;;0.77;;
14300;SDS011;7234;59.306;18.024;2024-01-15T08:19:26;0.97;;;0.50;;
14300;SDS011;7234;59.306;18.024;2024-01-15T08:21:53;1.60;;;0.60;;
14300;SDS011;7234;59.306;18.024;2024-01-15T08:24:21;1.37;;;0.40;;
14300;SDS011;7234;59.306;18.024;2024-01-15T08:26:48;1.20;;;0.60;;
14300;SDS011;7234;59.306;18.024;2024-01-15T08:29:15;2.53;;;0.70;;
14300;SDS011;7234;59.306;18.024;2024-01-15T08:31:44;0.37;;;0.37;;
14300;SDS011;7234;59.306;18.024;2024-01-15T08:34:10;1.17;;;0.40;;
14300;SDS011;7234;59.306;18.024;2024-01-15T08:36:37;0.70;;;0.30;;
14300;SDS011;7234;59.306;18.024;2024-01-15T08:39:05;0.63;;;0.30;;
14300;SDS011;7234;59.306;18.024;2024-01-15T08:41:35;1.20;;;0.50;;
14300;SDS011;7234;59.306;18.024;2024-01-15T08:44:02;1.60;;;0.60;;
14300;SDS011;7234;59.306;18.024;2024-01-15T08:46:29;0.90;;;0.67;;
14300;SDS011;7234;59.306;18.024;2024-01-15T08:48:56;1.23;;;0.53;;
14300;SDS011;7234;59.306;18.024;2024-01-15T08:51:23;0.50;;;0.50;;
14300;SDS011;7234;59.306;18.024;2024-01-15T08:53:50;3.70;;;0.60;;
14300;SDS011;7234;59.306;18.024;2024-01-15T08:56:17;0.70;;;0.57;;
14300;SDS011;7234;59.306;18.024;2024-01-15T08:58:46;1.77;;;0.60;;
14300;SDS011;7234;59.306;18.024;2024-01-15T09:01:13;0.97;;;0.43;;
14300;SDS011;7234;59.306;18.024;2024-01-15T09:03:40;2.03;;;0.53;;
14300;SDS011;7234;59.306;18.024;2024-01-15T09:06:07;1.50;;;0.40;;
14300;SDS011;7234;59.306;18.024;2024-01-15T09:08:35;1.70;;;0.43;;
14300;SDS011;7234;59.306;18.024;2024-01-15T09:11:02;0.20;;;0.20;;
14300;SDS011;7234;59.306;18.024;2024-01-15T09:13:30;0.40;;;0.40;;
14300;SDS011;7234;59.306;18.024;2024-01-15T09:15:58;0.67;;;0.50;;
14300;SDS011;7234;59.306;18.024;2024-01-15T09:18:26;1.10;;;0.57;;
14300;SDS011;7234;59.306;18.024;2024-01-15T09:20:53;4.53;;;0.60;;
14300;SDS011;7234;59.306;18.024;2024-01-15T09:23:20;3.10;;;0.80;;
14300;SDS011;7234;59.306;18.024;2024-01-15T09:25:47;1.90;;;0.37;;
14300;SDS011;7234;59.306;18.024;2024-01-15T09:28:14;0.70;;;0.50;;
14300;SDS011;7234;59.306;18.024;2024-01-15T09:30:41;0.57;;;0.23;;
14300;SDS011;7234;59.306;18.024;2024-01-15T09:33:11;0.67;;;0.30;;
14300;SDS011;7234;59.306;18.024;2024-01-15T09:35:38;1.83;;;0.53;;
14300;SDS011;7234;59.306;18.024;2024-01-15T09:38:05;1.63;;;0.60;;
14300;SDS011;7234;59.306;18.024;2024-01-15T09:40:32;0.87;;;0.40;;
14300;SDS011;7234;59.306;18.024;2024-01-15T09:43:00;0.80;;;0.50;;
14300;SDS011;7234;59.306;18.024;2024-01-15T09:45:27;0.27;;;0.27;;
14300;SDS011;7234;59.306;18.024;2024-01-15T09:47:55;1.20;;;0.50;;
14300;SDS011;7234;59.306;18.024;2024-01-15T09:50:24;0.60;;;0.50;;
14300;SDS011;7234;59.306;18.024;2024-01-15T09:52:51;1.60;;;0.70;;
14300;SDS011;7234;59.306;18.024;2024-01-15T09:55:19;0.57;;;0.40;;
14300;SDS011;7234;59.306;18.024;2024-01-15T09:57:47;2.67;;;1.43;;
14300;SDS011;7234;59.306;18.024;2024-01-15T10:00:15;1.83;;;0.70;;
14300;SDS011;7234;59.306;18.024;2024-01-15T10:02:44;0.70;;;0.53;;
14300;SDS011;7234;59.306;18.024;2024-01-15T10:05:11;2.80;;;0.67;;
14300;SDS011;7234;59.306;18.024;2024-01-15T10:07:40;1.77;;;0.70;;
14300;SDS011;7234;59.306;18.024;2024-01-15T10:10:08;3.53;;;0.67;;
14300;SDS011;7234;59.306;18.024;2024-01-15T10:12:37;1.43;;;0.60;;
14300;SDS011;7234;59.306;18.024;2024-01-15T10:15:05;1.07;;;0.50;;
14300;SDS011;7234;59.306;18.024;2024-01-15T10:17:36;1.30;;;0.50;;
14300;SDS011;7234;59.306;18.024;2024-01-15T10:20:06;1.07;;;0.50;;
14300;SDS011;7234;59.306;18.024;2024-01-15T10:22:35;0.60;;;0.47;;
14300;SDS011;7234;59.306;18.024;2024-01-15T10:25:05;1.07;;;0.40;;
14300;SDS011;7234;59.306;18.024;2024-01-15T10:27:36;0.20;;;0.20;;
14300;SDS011;7234;59.306;18.024;2024-01-15T10:30:03;3.77;;;0.57;;
14300;SDS011;7234;59.306;18.024;2024-01-15T10:32:31;0.53;;;0.53;;
14300;SDS011;7234;59.306;18.024;2024-01-15T10:34:58;0.47;;;0.40;;
14300;SDS011;7234;59.306;18.024;2024-01-15T10:37:25;0.87;;;0.57;;
14300;SDS011;7234;59.306;18.024;2024-01-15T10:39:52;3.00;;;0.40;;
14300;SDS011;7234;59.306;18.024;2024-01-15T10:42:21;0.53;;;0.40;;
14300;SDS011;7234;59.306;18.024;2024-01-15T10:44:48;1.27;;;0.47;;
14300;SDS011;7234;59.306;18.024;2024-01-15T10:47:15;0.57;;;0.50;;
14300;SDS011;7234;59.306;18.024;2024-01-15T10:49:42;0.70;;;0.47;;
14300;SDS011;7234;59.306;18.024;2024-01-15T10:52:09;0.70;;;0.60;;
14300;SDS011;7234;59.306;18.024;2024-01-15T10:54:36;1.57;;;0.50;;
14300;SDS011;7234;59.306;18.024;2024-01-15T10:57:04;2.33;;;0.60;;
14300;SDS011;7234;59.306;18.024;2024-01-15T10:59:34;1.57;;;0.60;;
14300;SDS011;7234;59.306;18.024;2024-01-15T11:02:02;0.40;;;0.40;;
14300;SDS011;7234;59.306;18.024;2024-01-15T11:04:31;0.50;;;0.37;;
14300;SDS011;7234;59.306;18.024;2024-01-15T11:06:58;1.20;;;0.40;;
14300;SDS011;7234;59.306;18.024;2024-01-15T11:09:28;0.70;;;0.30;;
14300;SDS011;7234;59.306;18.024;2024-01-15T11:12:06;2.70;;;0.80;;
14300;SDS011;7234;59.306;18.024;2024-01-15T11:14:38;1.17;;;0.60;;
14300;SDS011;7234;59.306;18.024;2024-01-15T11:17:05;0.63;;;0.40;;
14300;SDS011;7234;59.306;18.024;2024-01-15T11:19:36;1.20;;;0.50;;
14300;SDS011;7234;59.306;18.024;2024-01-15T11:22:05;0.50;;;0.43;;
14300;SDS011;7234;59.306;18.024;2024-01-15T11:24:34;0.30;;;0.30;;
14300;SDS011;7234;59.306;18.024;2024-01-15T11:27:03;1.27;;;0.67;;
14300;SDS011;7234;59.306;18.024;2024-01-15T11:29:31;0.47;;;0.20;;
14300;SDS011;7234;59.306;18.024;2024-01-15T11:32:01;3.13;;;0.60;;
14300;SDS011;7234;59.306;18.024;2024-01-15T11:37:16;2.70;;;0.60;;
14300;SDS011;7234;59.306;18.024;2024-01-15T11:39:43;1.03;;;0.40;;
14300;SDS011;7234;59.306;18.024;2024-01-15T11:42:10;1.07;;;0.57;;
14300;SDS011;7234;59.306;18.024;2024-01-15T11:44:38;0.53;;;0.40;;
14300;SDS011;7234;59.306;18.024;2024-01-15T11:47:07;0.67;;;0.37;;
14300;SDS011;7234;59.306;18.024;2024-01-15T11:52:26;2.73;;;0.67;;
14300;SDS011;7234;59.306;18.024;2024-01-15T11:55:00;2.97;;;0.50;;
14300;SDS011;7234;59.306;18.024;2024-01-15T11:57:37;1.67;;;0.40;;
14300;SDS011;7234;59.306;18.024;2024-01-15T12:00:08;0.47;;;0.40;;
14300;SDS011;7234;59.306;18.024;2024-01-15T12:02:38;0.90;;;0.40;;
14300;SDS011;7234;59.306;18.024;2024-01-15T12:05:06;1.97;;;0.83;;
14300;SDS011;7234;59.306;18.024;2024-01-15T12:07:34;1.13;;;0.50;;
14300;SDS011;7234;59.306;18.024;2024-01-15T12:10:01;0.80;;;0.43;;
14300;SDS011;7234;59.306;18.024;2024-01-15T12:12:32;0.43;;;0.30;;
14300;SDS011;7234;59.306;18.024;2024-01-15T12:15:06;0.40;;;0.40;;
14300;SDS011;7234;59.306;18.024;2024-01-15T12:17:34;2.10;;;0.60;;
14300;SDS011;7234;59.306;18.024;2024-01-15T12:20:03;0.43;;;0.40;;
14300;SDS011;7234;59.306;18.024;2024-01-15T12:22:31;0.87;;;0.60;;
14300;SDS011;7234;59.306;18.024;2024-01-15T12:24:58;0.37;;;0.37;;
14300;SDS011;7234;59.306;18.024;2024-01-15T12:27:25;0.90;;;0.73;;
14300;SDS011;7234;59.306;18.024;2024-01-15T12:29:52;0.57;;;0.30;;
14300;SDS011;7234;59.306;18.024;2024-01-15T12:32:19;1.80;;;0.53;;
14300;SDS011;7234;59.306;18.024;2024-01-15T12:34:48;1.97;;;0.50;;
14300;SDS011;7234;59.306;18.024;2024-01-15T12:37:19;0.40;;;0.40;;
14300;SDS011;7234;59.306;18.024;2024-01-15T12:39:46;0.30;;;0.20;;
14300;SDS011;7234;59.306;18.024;2024-01-15T12:42:13;0.40;;;0.40;;
14300;SDS011;7234;59.306;18.024;2024-01-15T12:44:41;1.60;;;0.90;;
14300;SDS011;7234;59.306;18.024;2024-01-15T12:47:09;0.73;;;0.47;;
14300;SDS011;7234;59.306;18.024;2024-01-15T12:49:36;1.50;;;0.30;;
14300;SDS011;7234;59.306;18.024;2024-01-15T12:52:07;0.60;;;0.30;;
14300;SDS011;7234;59.306;18.024;2024-01-15T12:54:37;4.40;;;0.70;;
14300;SDS011;7234;59.306;18.024;2024-01-15T12:57:04;2.53;;;0.47;;
14300;SDS011;7234;59.306;18.024;2024-01-15T12:59:30;0.67;;;0.33;;
14300;SDS011;7234;59.306;18.024;2024-01-15T13:01:58;1.80;;;0.50;;
14300;SDS011;7234;59.306;18.024;2024-01-15T13:04:25;0.50;;;0.40;;
14300;SDS011;7234;59.306;18.024;2024-01-15T13:06:52;0.47;;;0.40;;
14300;SDS011;7234;59.306;18.024;2024-01-15T13:09:19;1.10;;;0.60;;
14300;SDS011;7234;59.306;18.024;2024-01-15T13:11:47;1.10;;;0.40;;
14300;SDS011;7234;59.306;18.024;2024-01-15T13:14:14;1.60;;;0.40;;
14300;SDS011;7234;59.306;18.024;2024-01-15T13:16:41;0.73;;;0.33;;
14300;SDS011;7234;59.306;18.024;2024-01-15T13:19:09;1.17;;;0.40;;
14300;SDS011;7234;59.306;18.024;2024-01-15T13:21:38;0.87;;;0.40;;
14300;SDS011;7234;59.306;18.024;2024-01-15T13:24:05;1.83;;;0.60;;
14300;SDS011;7234;59.306;18.024;2024-01-15T13:26:32;2.77;;;0.67;;
14300;SDS011;7234;59.306;18.024;2024-01-15T13:29:01;1.03;;;0.50;;
14300;SDS011;7234;59.306;18.024;2024-01-15T13:31:28;0.60;;;0.40;;
14300;SDS011;7234;59.306;18.024;2024-01-15T13:33:55;1.37;;;0.40;;
14300;SDS011;7234;59.306;18.024;2024-01-15T13:36:23;2.43;;;0.67;;
14300;SDS011;7234;59.306;18.024;2024-01-15T13:38:50;0.40;;;0.40;;
14300;SDS011;7234;59.306;18.024;2024-01-15T13:41:17;0.43;;;0.43;;
14300;SDS011;7234;59.306;18.024;2024-01-15T13:43:49;0.70;;;0.30;;
14300;SDS011;7234;59.306;18.024;2024-01-15T13:46:19;0.40;;;0.33;;
14300;SDS011;7234;59.306;18.024;2024-01-15T13:48:47;2.37;;;0.80;;
14300;SDS011;7234;59.306;18.024;2024-01-15T13:51:14;0.50;;;0.50;;
14300;SDS011;7234;59.306;18.024;2024-01-15T13:53:41;1.47;;;0.50;;
14300;SDS011;7234;59.306;18.024;2024-01-15T13:56:08;0.37;;;0.37;;
14300;SDS011;7234;59.306;18.024;2024-01-15T13:58:36;1.77;;;1.20;;
14300;SDS011;7234;59.306;18.024;2024-01-15T14:01:03;0.43;;;0.40;;
14300;SDS011;7234;59.306;18.024;2024-01-15T14:03:32;0.70;;;0.50;;
14300;SDS011;7234;59.306;18.024;2024-01-15T14:06:00;1.03;;;0.40;;
14300;SDS011;7234;59.306;18.024;2024-01-15T14:08:28;5.90;;;0.50;;
14300;SDS011;7234;59.306;18.024;2024-01-15T14:10:55;0.70;;;0.50;;
14300;SDS011;7234;59.306;18.024;2024-01-15T14:13:22;0.93;;;0.60;;
14300;SDS011;7234;59.306;18.024;2024-01-15T14:15:49;1.43;;;0.50;;
14300;SDS011;7234;59.306;18.024;2024-01-15T14:18:16;1.50;;;0.40;;
14300;SDS011;7234;59.306;18.024;2024-01-15T14:20:45;0.60;;;0.50;;
14300;SDS011;7234;59.306;18.024;2024-01-15T14:23:12;0.50;;;0.50;;
14300;SDS011;7234;59.306;18.024;2024-01-15T14:25:39;1.20;;;0.50;;
14300;SDS011;7234;59.306;18.024;2024-01-15T14:28:06;3.20;;;0.70;;
14300;SDS011;7234;59.306;18.024;2024-01-15T14:30:33;1.20;;;0.73;;
14300;SDS011;7234;59.306;18.024;2024-01-15T14:33:00;1.90;;;0.37;;
14300;SDS011;7234;59.306;18.024;2024-01-15T14:35:27;0.30;;;0.27;;
14300;SDS011;7234;59.306;18.024;2024-01-15T14:37:56;0.70;;;0.40;;
14300;SDS011;7234;59.306;18.024;2024-01-15T14:40:23;2.73;;;0.30;;
14300;SDS011;7234;59.306;18.024;2024-01-15T14:42:51;0.83;;;0.60;;
14300;SDS011;7234;59.306;18.024;2024-01-15T14:45:18;1.00;;;0.50;;
14300;SDS011;7234;59.306;18.024;2024-01-15T14:47:45;4.63;;;0.50;;
14300;SDS011;7234;59.306;18.024;2024-01-15T14:50:12;1.57;;;0.57;;
14300;SDS011;7234;59.306;18.024;2024-01-15T14:52:39;1.90;;;0.40;;
14300;SDS011;7234;59.306;18.024;2024-01-15T14:55:08;1.67;;;0.50;;